Time;durP1;ratioP1;P1;durP2;ratioP2;P2;SDS_P1;SDS_P2;PMS_P1;PMS_P2;Temp;Humidity;BMP_temperature;BMP_pressure;BME280_temperature;BME280_humidity;BME280_pressure;Samples;Min_cycle;Max_cycle;Signal;HPM_P1;HPM_P2
2021/04/12 00:02:02;;;;;;;8.60;4.80;;;1.80;99.90;;;;;;5059659;28;20040;-61
2021/04/12 00:04:41;;;;;;;13.93;5.57;;;1.80;99.90;;;;;;5060661;28;20049;-62
2021/04/12 00:07:24;;;;;;;10.43;5.07;;;1.80;99.90;;;;;;5061423;28;20052;-62
2021/04/12 00:10:13;;;;;;;10.70;4.90;;;1.70;99.90;;;;;;5061336;28;20040;-59
2021/04/12 00:12:47;;;;;;;11.93;5.05;;;1.80;99.90;;;;;;5060805;28;20041;-63
2021/04/12 00:15:29;;;;;;;6.82;4.30;;;1.80;99.90;;;;;;5050634;28;20045;-64
2021/04/12 00:18:00;;;;;;;7.75;4.70;;;1.70;99.90;;;;;;5045765;28;20099;-60
2021/04/12 00:20:34;;;;;;;9.95;4.75;;;1.50;99.90;;;;;;5047835;28;20045;-58
2021/04/12 00:23:10;;;;;;;14.65;5.43;;;1.50;99.90;;;;;;5047922;28;20055;-56
2021/04/12 00:25:51;;;;;;;6.28;4.50;;;1.60;99.90;;;;;;5047772;28;20087;-63
2021/04/12 00:28:38;;;;;;;5.45;4.07;;;1.60;99.90;;;;;;5048179;28;20041;-62
2021/04/12 00:31:16;;;;;;;9.55;4.50;;;1.60;99.90;;;;;;5055075;28;20059;-62
2021/04/12 00:33:57;;;;;;;10.75;4.75;;;1.60;99.90;;;;;;5067092;28;20041;-63
2021/04/12 00:36:31;;;;;;;10.68;5.53;;;1.60;99.90;;;;;;5068066;28;20059;-63
2021/04/12 00:39:02;;;;;;;4.82;3.33;;;1.60;99.90;;;;;;5066709;28;20066;-55
2021/04/12 00:41:57;;;;;;;9.40;3.00;;;1.60;99.90;;;;;;5067275;28;20033;-61
2021/04/12 00:44:49;;;;;;;4.75;3.03;;;1.60;99.90;;;;;;5067436;28;20048;-62
2021/04/12 00:47:50;;;;;;;5.50;2.67;;;1.60;99.90;;;;;;5046020;28;20120;-62
2021/04/12 00:50:41;;;;;;;5.13;2.78;;;1.60;99.90;;;;;;5048926;28;20032;-63
2021/04/12 00:53:19;;;;;;;7.75;2.67;;;1.50;99.90;;;;;;5048005;28;20084;-63
2021/04/12 00:55:57;;;;;;;8.65;3.25;;;1.50;99.90;;;;;;5040365;28;20037;-63
2021/04/12 00:58:50;;;;;;;6.13;3.20;;;1.50;99.90;;;;;;5047595;28;20520;-62
2021/04/12 01:01:19;;;;;;;5.72;3.20;;;1.40;99.90;;;;;;5045316;28;20040;-63
2021/04/12 01:04:38;;;;;;;11.02;3.50;;;1.30;99.90;;;;;;5046049;28;20460;-63
2021/04/12 01:07:20;;;;;;;7.85;3.70;;;1.30;99.90;;;;;;5004848;28;20089;-62
2021/04/12 01:10:04;;;;;;;5.55;3.17;;;1.30;99.90;;;;;;5004585;28;20042;-61
2021/04/12 01:12:47;;;;;;;8.02;3.33;;;1.30;99.90;;;;;;5033232;28;20676;-62
2021/04/12 01:15:52;;;;;;;7.65;2.92;;;1.30;99.90;;;;;;5045701;28;20634;-62
2021/04/12 01:18:18;;;;;;;8.40;2.88;;;1.30;99.90;;;;;;5040137;28;20099;-62
2021/04/12 01:21:31;;;;;;;9.75;3.15;;;1.30;99.90;;;;;;5043173;28;20045;-62
2021/04/12 01:24:01;;;;;;;5.40;3.10;;;1.30;99.90;;;;;;4998813;28;20057;-63
2021/04/12 01:26:58;;;;;;;9.35;3.50;;;1.30;99.90;;;;;;5038094;28;20536;-63
2021/04/12 01:30:02;;;;;;;5.25;3.05;;;1.40;99.90;;;;;;5055118;28;20033;-62
2021/04/12 01:32:37;;;;;;;9.05;3.03;;;1.40;99.90;;;;;;5031590;28;20128;-63
2021/04/12 01:35:21;;;;;;;8.60;3.85;;;1.50;99.90;;;;;;5027976;28;20124;-63
2021/04/12 01:37:50;;;;;;;8.52;3.60;;;1.50;99.90;;;;;;5035606;28;20091;-62
2021/04/12 01:40:27;;;;;;;12.20;4.00;;;1.40;99.90;;;;;;5035744;28;20072;-63
2021/04/12 01:43:05;;;;;;;9.52;4.60;;;1.40;99.90;;;;;;5039161;28;20040;-62
2021/04/12 01:45:45;;;;;;;7.80;4.22;;;1.40;99.90;;;;;;5044064;28;20037;-62
2021/04/12 01:48:44;;;;;;;15.13;4.90;;;1.30;99.90;;;;;;5046521;28;20040;-61
2021/04/12 01:51:34;;;;;;;12.35;4.35;;;1.20;99.90;;;;;;5046636;28;20086;-63
2021/04/12 01:54:26;;;;;;;10.77;5.10;;;1.30;99.90;;;;;;5045424;28;20810;-63
2021/04/12 01:56:57;;;;;;;10.20;4.88;;;1.40;99.90;;;;;;5013383;28;20516;-62
2021/04/12 02:00:03;;;;;;;11.15;4.68;;;1.30;99.90;;;;;;5046430;28;20052;-62
2021/04/12 02:02:46;;;;;;;10.73;5.30;;;1.30;99.90;;;;;;5044065;28;20049;-62
2021/04/12 02:05:34;;;;;;;12.98;6.07;;;1.20;99.90;;;;;;5046040;28;20075;-62
2021/04/12 02:08:22;;;;;;;7.28;4.78;;;1.10;99.90;;;;;;5045803;28;20048;-61
2021/04/12 02:10:47;;;;;;;10.82;4.63;;;1.10;99.90;;;;;;5026480;28;20041;-63
2021/04/12 02:13:40;;;;;;;8.35;4.50;;;1.00;99.90;;;;;;5039413;28;20705;-63
2021/04/12 02:16:33;;;;;;;15.52;6.93;;;1.00;99.90;;;;;;5045770;28;20036;-63
2021/04/12 02:18:58;;;;;;;11.38;4.25;;;1.00;99.90;;;;;;5045832;28;20037;-63
2021/04/12 02:21:38;;;;;;;6.95;3.60;;;1.00;99.90;;;;;;5039091;28;20094;-62
2021/04/12 02:24:40;;;;;;;4.40;3.17;;;1.00;99.90;;;;;;5045668;28;20049;-62
2021/04/12 02:27:17;;;;;;;6.03;3.17;;;1.00;99.90;;;;;;5045195;28;20045;-63
2021/04/12 02:30:00;;;;;;;7.50;3.28;;;1.00;99.90;;;;;;5038870;28;20069;-62
2021/04/12 02:33:00;;;;;;;7.68;3.65;;;0.90;99.90;;;;;;5044411;28;20037;-63
2021/04/12 02:35:51;;;;;;;4.38;2.75;;;0.90;99.90;;;;;;5045319;28;20126;-62
2021/04/12 02:38:33;;;;;;;8.27;2.97;;;1.00;99.90;;;;;;5045846;28;20037;-60
2021/04/12 02:41:08;;;;;;;6.32;2.90;;;1.00;99.90;;;;;;5046828;28;20052;-62
2021/04/12 02:43:55;;;;;;;5.80;2.75;;;1.00;99.90;;;;;;5044956;28;20047;-63
2021/04/12 02:46:48;;;;;;;5.20;2.80;;;1.00;99.90;;;;;;5045431;28;20052;-63
2021/04/12 02:49:36;;;;;;;9.98;3.05;;;1.00;99.90;;;;;;5046352;28;20724;-62
2021/04/12 02:52:42;;;;;;;13.15;3.17;;;1.10;99.90;;;;;;5045545;28;20076;-63
2021/04/12 02:55:07;;;;;;;9.68;3.42;;;1.10;99.90;;;;;;5045660;28;20631;-63
2021/04/12 02:58:07;;;;;;;4.55;2.78;;;0.90;99.90;;;;;;5037173;28;20088;-63
2021/04/12 03:00:51;;;;;;;7.38;3.22;;;1.00;99.90;;;;;;5044808;28;20521;-62
2021/04/12 03:03:41;;;;;;;8.00;3.05;;;1.10;99.90;;;;;;5044660;28;20049;-62
2021/04/12 03:06:50;;;;;;;6.82;2.30;;;1.20;99.90;;;;;;5046101;28;20043;-61
2021/04/12 03:09:43;;;;;;;7.90;2.67;;;1.20;99.90;;;;;;5046052;28;20064;-61
2021/04/12 03:12:49;;;;;;;6.47;2.72;;;1.20;99.90;;;;;;5044742;28;20029;-61
2021/04/12 03:15:24;;;;;;;10.95;3.38;;;1.20;99.90;;;;;;5040421;28;20053;-57
2021/04/12 03:18:10;;;;;;;4.30;2.58;;;1.20;99.90;;;;;;5049167;28;20072;-61
2021/04/12 03:21:03;;;;;;;5.45;2.63;;;1.10;99.90;;;;;;5043406;28;20669;-61
2021/04/12 03:23:51;;;;;;;9.98;2.80;;;1.10;99.90;;;;;;5043059;28;20048;-61
2021/04/12 03:26:29;;;;;;;11.30;3.33;;;1.20;99.90;;;;;;5052336;28;20123;-61
2021/04/12 03:29:32;;;;;;;7.40;2.75;;;1.20;99.90;;;;;;5044779;28;20036;-61
2021/04/12 03:32:23;;;;;;;4.68;3.33;;;1.30;99.90;;;;;;5044072;28;20358;-61
2021/04/12 03:34:54;;;;;;;8.57;2.75;;;1.20;99.90;;;;;;5049739;28;20041;-62
2021/04/12 03:37:50;;;;;;;8.50;3.30;;;1.10;99.90;;;;;;5045737;28;20037;-62
2021/04/12 03:40:32;;;;;;;9.90;3.30;;;1.20;99.90;;;;;;5045104;28;20040;-62
2021/04/12 03:43:40;;;;;;;6.28;2.80;;;1.20;99.90;;;;;;5045384;28;20053;-62
2021/04/12 03:46:26;;;;;;;9.93;2.92;;;1.10;99.90;;;;;;5044654;28;20592;-61
2021/04/12 03:49:13;;;;;;;7.13;3.10;;;1.20;99.90;;;;;;5045536;28;20048;-62
2021/04/12 03:52:00;;;;;;;10.35;3.42;;;1.10;99.90;;;;;;5048280;28;20099;-61
2021/04/12 03:54:44;;;;;;;7.10;3.35;;;1.10;99.90;;;;;;5048267;28;20102;-62
2021/04/12 03:57:37;;;;;;;6.50;3.28;;;1.00;99.90;;;;;;5048289;28;20045;-61
2021/04/12 04:00:28;;;;;;;9.88;2.78;;;1.00;99.90;;;;;;5049279;28;20145;-61
2021/04/12 04:03:22;;;;;;;7.05;2.92;;;0.90;99.90;;;;;;5047483;28;20045;-60
2021/04/12 04:05:48;;;;;;;6.65;2.67;;;1.00;99.90;;;;;;5049051;28;20488;-59
2021/04/12 04:08:44;;;;;;;5.68;2.55;;;1.10;99.90;;;;;;5047010;28;20055;-60
2021/04/12 04:11:35;;;;;;;6.78;3.50;;;1.10;99.90;;;;;;5047623;28;20037;-62
2021/04/12 04:14:10;;;;;;;10.45;2.97;;;1.00;99.90;;;;;;5040037;28;20108;-59
2021/04/12 04:17:06;;;;;;;8.00;2.90;;;1.00;99.90;;;;;;5051510;28;20048;-63
2021/04/12 04:19:56;;;;;;;7.90;3.00;;;1.00;99.90;;;;;;5066832;28;20039;-63
2021/04/12 04:22:42;;;;;;;8.32;2.80;;;1.00;99.90;;;;;;5067281;28;20080;-62
2021/04/12 04:25:26;;;;;;;5.72;2.78;;;1.00;99.90;;;;;;5067112;28;20046;-61
2021/04/12 04:28:19;;;;;;;4.22;2.53;;;1.10;99.90;;;;;;5067668;28;20053;-62
2021/04/12 04:31:02;;;;;;;5.63;3.05;;;1.20;99.90;;;;;;5068132;28;20535;-62
2021/04/12 04:33:46;;;;;;;9.43;2.70;;;1.20;99.90;;;;;;5062392;23;20037;-62
2021/04/12 04:36:36;;;;;;;6.07;2.45;;;1.20;99.90;;;;;;5048940;28;20033;-59
2021/04/12 04:39:36;;;;;;;4.35;3.28;;;1.30;99.90;;;;;;5060408;22;20041;-73
2021/04/12 04:42:31;;;;;;;5.15;2.60;;;1.10;99.90;;;;;;5070546;28;20532;-70
2021/04/12 04:45:24;;;;;;;5.95;2.92;;;1.10;99.90;;;;;;5050755;28;20083;-70
2021/04/12 04:47:55;;;;;;;10.05;3.08;;;1.20;99.90;;;;;;5067096;28;20485;-72
2021/04/12 04:50:42;;;;;;;7.75;3.00;;;1.20;99.90;;;;;;5068687;28;20072;-70
2021/04/12 04:53:36;;;;;;;10.00;2.85;;;1.20;99.90;;;;;;5069600;28;20438;-70
2021/04/12 04:56:27;;;;;;;9.93;3.33;;;1.20;99.90;;;;;;5069959;28;20529;-69
2021/04/12 04:59:18;;;;;;;11.60;4.57;;;1.00;99.90;;;;;;5049490;28;20500;-72
2021/04/12 05:02:15;;;;;;;3.20;2.28;;;1.00;99.90;;;;;;5067211;28;20037;-71
2021/04/12 05:04:40;;;;;;;8.63;3.42;;;1.10;99.90;;;;;;5067827;28;20052;-73
2021/04/12 05:07:34;;;;;;;13.63;3.38;;;1.10;99.90;;;;;;5068203;28;20093;-70
2021/04/12 05:10:14;;;;;;;11.10;2.90;;;1.10;99.90;;;;;;5069638;28;20098;-72
2021/04/12 05:13:04;;;;;;;9.43;3.13;;;1.10;99.90;;;;;;5061478;28;20115;-70
2021/04/12 05:15:49;;;;;;;9.18;2.85;;;1.20;99.90;;;;;;5068878;28;20044;-72
2021/04/12 05:18:26;;;;;;;6.55;2.60;;;1.30;99.90;;;;;;5068282;28;20044;-71
2021/04/12 05:21:16;;;;;;;10.32;2.88;;;1.30;99.90;;;;;;5067673;28;20033;-74
2021/04/12 05:24:03;;;;;;;9.38;3.28;;;1.40;99.90;;;;;;5066461;28;20097;-74
2021/04/12 05:26:38;;;;;;;;;;;1.40;99.90;;;;;;5068189;28;20049;-71
2021/04/12 05:29:26;;;;;;;10.30;2.58;;;1.50;99.90;;;;;;5065531;28;19944;-73
2021/04/12 05:32:12;;;;;;;12.48;3.65;;;1.50;99.90;;;;;;5065639;28;20040;-72
2021/04/12 05:34:58;;;;;;;7.35;3.65;;;1.60;99.90;;;;;;5037647;28;20044;-72
2021/04/12 05:37:46;;;;;;;5.18;2.45;;;1.70;99.90;;;;;;5068311;28;20037;-72
2021/04/12 05:40:33;;;;;;;8.35;2.75;;;1.80;99.90;;;;;;5069559;28;20127;-73
2021/04/12 05:43:11;;;;;;;5.43;2.75;;;1.90;99.90;;;;;;5067897;28;20123;-74
2021/04/12 05:46:05;;;;;;;5.85;2.90;;;2.20;99.90;;;;;;5068144;28;20047;-72
2021/04/12 05:49:09;;;;;;;6.15;2.72;;;2.30;99.90;;;;;;5068643;28;20083;-74
2021/04/12 05:51:53;;;;;;;9.32;2.85;;;2.40;99.90;;;;;;5068317;28;20074;-73
2021/04/12 05:54:44;;;;;;;5.70;2.88;;;2.40;99.90;;;;;;5070196;28;20040;-75
2021/04/12 05:57:37;;;;;;;6.85;2.40;;;2.30;99.90;;;;;;5070556;28;20167;-70
2021/04/12 06:00:34;;;;;;;9.77;3.63;;;2.10;99.90;;;;;;5068240;28;20076;-71
2021/04/12 06:03:15;;;;;;;3.22;2.33;;;2.00;99.90;;;;;;5046067;28;20040;-72
2021/04/12 06:06:15;;;;;;;9.32;2.72;;;2.10;99.90;;;;;;5068513;28;20044;-69
2021/04/12 06:09:07;;;;;;;7.85;2.97;;;2.20;99.90;;;;;;5069387;28;20036;-70
2021/04/12 06:11:54;;;;;;;11.38;3.40;;;2.30;99.90;;;;;;5036508;28;20119;-73
2021/04/12 06:14:38;;;;;;;11.82;2.97;;;2.50;99.90;;;;;;5067691;28;20044;-69
2021/04/12 06:17:29;;;;;;;5.40;2.60;;;2.50;99.90;;;;;;5066544;28;20044;-69
2021/04/12 06:20:33;;;;;;;6.43;2.30;;;2.50;99.90;;;;;;5069195;28;20044;-69
2021/04/12 06:23:36;;;;;;;4.80;2.53;;;2.40;99.90;;;;;;5066652;28;20148;-70
2021/04/12 06:26:36;;;;;;;5.05;2.83;;;2.60;99.90;;;;;;5063263;28;20036;-69
2021/04/12 06:29:23;;;;;;;6.85;2.30;;;2.70;99.90;;;;;;5067452;28;20043;-71
2021/04/12 06:32:12;;;;;;;;;;;2.80;99.90;;;;;;5067239;28;20033;-70
2021/04/12 06:35:07;;;;;;;5.85;2.13;;;2.60;99.90;;;;;;5072078;28;20356;-72
2021/04/12 06:37:54;;;;;;;9.15;2.78;;;2.70;99.90;;;;;;5067271;28;20039;-72
2021/04/12 06:40:52;;;;;;;9.60;2.75;;;2.40;99.90;;;;;;5068173;28;20046;-72
2021/04/12 06:44:00;;;;;;;7.22;2.80;;;2.30;99.90;;;;;;5066203;28;20044;-68
2021/04/12 06:46:32;;;;;;;8.55;3.10;;;2.30;99.90;;;;;;5060440;28;20053;-70
2021/04/12 06:49:35;;;;;;;9.88;2.70;;;2.40;99.90;;;;;;5066948;28;20039;-68
2021/04/12 06:52:20;;;;;;;7.75;2.80;;;2.30;99.90;;;;;;5066535;28;20044;-70
2021/04/12 06:55:13;;;;;;;7.43;2.67;;;2.40;99.90;;;;;;5066881;28;20036;-70
2021/04/12 06:57:56;;;;;;;9.32;2.53;;;2.50;99.90;;;;;;5066586;28;20107;-71
2021/04/12 07:00:55;;;;;;;14.77;3.17;;;2.50;99.90;;;;;;5066292;28;20128;-69
2021/04/12 07:03:51;;;;;;;5.13;2.35;;;2.50;99.90;;;;;;5067102;28;20114;-71
2021/04/12 07:06:41;;;;;;;7.70;2.33;;;2.50;99.90;;;;;;5066438;28;20043;-69
2021/04/12 07:09:12;;;;;;;8.55;2.28;;;2.20;99.90;;;;;;5067161;28;20485;-70
2021/04/12 07:12:04;;;;;;;3.17;1.80;;;2.40;99.90;;;;;;5065933;28;20052;-68
2021/04/12 07:14:50;;;;;;;13.00;4.25;;;2.60;99.90;;;;;;5066913;28;20036;-68
2021/04/12 07:17:22;;;;;;;10.57;5.32;;;2.70;99.90;;;;;;5067418;28;20040;-72
2021/04/12 07:19:56;;;;;;;8.15;3.50;;;2.70;99.90;;;;;;5068071;28;20044;-69
2021/04/12 07:22:49;;;;;;;6.90;2.33;;;2.70;99.90;;;;;;5067183;28;20043;-72
2021/04/12 07:25:34;;;;;;;14.18;2.92;;;2.80;99.90;;;;;;5040054;28;20059;-71
2021/04/12 07:28:31;;;;;;;6.35;1.90;;;2.90;99.90;;;;;;5071392;28;20918;-70
2021/04/12 07:31:08;;;;;;;6.05;2.92;;;3.20;99.90;;;;;;5071572;28;20061;-71
2021/04/12 07:33:57;;;;;;;5.13;2.17;;;3.20;99.90;;;;;;5071194;28;20040;-68
2021/04/12 07:36:41;;;;;;;7.22;2.22;;;3.50;99.90;;;;;;5071003;28;20071;-70
2021/04/12 07:39:34;;;;;;;6.97;2.53;;;3.90;99.90;;;;;;5071261;28;20120;-70
2021/04/12 07:42:19;;;;;;;10.10;2.50;;;3.80;99.90;;;;;;5070367;28;20050;-71
2021/04/12 07:45:26;;;;;;;6.00;2.22;;;3.50;99.90;;;;;;5070458;28;20040;-71
2021/04/12 07:48:11;;;;;;;12.18;7.13;;;3.30;99.90;;;;;;5071008;28;20106;-71
2021/04/12 07:51:14;;;;;;;8.65;2.75;;;3.40;99.90;;;;;;5063280;28;20042;-70
2021/04/12 07:53:52;;;;;;;8.30;2.40;;;3.40;99.90;;;;;;5070544;28;20041;-70
2021/04/12 07:56:56;;;;;;;7.65;3.05;;;3.30;99.90;;;;;;5070057;28;20063;-75
2021/04/12 07:59:46;;;;;;;33.67;19.80;;;3.80;99.90;;;;;;5070566;28;20097;-72
2021/04/12 08:02:43;;;;;;;3.88;2.13;;;4.50;99.90;;;;;;5069890;28;20040;-73
2021/04/12 08:05:47;;;;;;;9.68;4.32;;;6.30;98.00;;;;;;5070747;28;20040;-77
2021/04/12 08:08:19;;;;;;;7.55;3.60;;;7.60;95.80;;;;;;5069927;28;20040;-74
2021/04/12 08:11:23;;;;;;;3.38;1.80;;;7.70;94.60;;;;;;5069597;28;20707;-77
2021/04/12 08:14:27;;;;;;;9.68;4.30;;;6.90;92.90;;;;;;5069042;28;20048;-73
2021/04/12 08:17:21;;;;;;;9.77;3.45;;;6.00;97.50;;;;;;5069198;28;20044;-73
2021/04/12 08:20:24;;;;;;;6.50;2.58;;;6.90;96.90;;;;;;5070062;28;20035;-74
2021/04/12 08:23:24;;;;;;;5.32;2.58;;;8.00;92.30;;;;;;5069463;28;20115;-71
2021/04/12 08:25:58;;;;;;;67.65;9.73;;;7.20;97.00;;;;;;5063556;28;20071;-72
2021/04/12 08:28:56;;;;;;;52.25;5.03;;;6.80;98.10;;;;;;5069248;28;20071;-70
2021/04/12 08:31:51;;;;;;;33.03;4.57;;;5.80;98.40;;;;;;5068740;28;20115;-70
2021/04/12 08:34:38;;;;;;;4.38;2.15;;;5.90;99.90;;;;;;5069325;28;20435;-69
2021/04/12 08:37:34;;;;;;;5.22;1.77;;;6.10;98.40;;;;;;5068224;28;20068;-70
2021/04/12 08:40:38;;;;;;;7.72;3.25;;;6.70;99.40;;;;;;5064814;28;20115;-75
2021/04/12 08:43:06;;;;;;;90.18;5.00;;;6.30;99.90;;;;;;5069728;28;20032;-76
2021/04/12 08:45:35;;;;;;;4.72;1.60;;;5.70;97.50;;;;;;5069361;28;20044;-70
2021/04/12 08:48:20;;;;;;;9.93;2.00;;;5.60;98.30;;;;;;5073866;28;20047;-68
2021/04/12 08:51:16;;;;;;;4.53;2.00;;;5.50;99.00;;;;;;5065505;28;20036;-71
2021/04/12 08:54:06;;;;;;;13.80;6.32;;;5.10;97.90;;;;;;5072299;28;20037;-69
2021/04/12 08:57:17;;;;;;;4.13;1.60;;;4.70;99.90;;;;;;5071797;28;20044;-70
2021/04/12 09:00:12;;;;;;;4.72;1.73;;;4.40;99.90;;;;;;5087364;28;20124;-70
2021/04/12 09:02:44;;;;;;;4.05;1.80;;;4.40;99.90;;;;;;5077117;28;20036;-70
2021/04/12 09:05:14;;;;;;;14.73;2.95;;;4.30;99.90;;;;;;5065620;28;20166;-69
2021/04/12 09:08:08;;;;;;;8.77;2.72;;;4.40;99.90;;;;;;5068390;28;20059;-69
2021/04/12 09:11:11;;;;;;;11.38;1.92;;;4.50;99.90;;;;;;5057413;28;20033;-69
2021/04/12 09:14:05;;;;;;;4.47;1.73;;;4.80;99.90;;;;;;5068486;28;20048;-70
2021/04/12 09:16:43;;;;;;;2.92;1.67;;;4.90;99.90;;;;;;5067811;28;20098;-69
2021/04/12 09:19:43;;;;;;;10.38;1.92;;;5.20;99.90;;;;;;5070303;28;20044;-70
2021/04/12 09:22:28;;;;;;;6.30;2.03;;;5.50;99.90;;;;;;5069614;28;20040;-77
2021/04/12 09:25:12;;;;;;;4.13;2.10;;;5.40;99.70;;;;;;5068628;28;20119;-72
2021/04/12 09:27:59;;;;;;;5.32;1.77;;;5.50;99.90;;;;;;5048377;28;20099;-71
2021/04/12 09:30:34;;;;;;;;;;;5.00;99.30;;;;;;5063325;28;20041;-71
2021/04/12 09:33:24;;;;;;;6.45;1.98;;;4.90;99.90;;;;;;5064901;28;20003;-69
2021/04/12 09:36:06;;;;;;;4.47;1.92;;;4.70;99.70;;;;;;5049096;28;20231;-70
2021/04/12 09:38:55;;;;;;;4.00;1.77;;;4.40;99.90;;;;;;5067991;28;20044;-69
2021/04/12 09:41:24;;;;;;;2.63;2.10;;;4.10;99.90;;;;;;5060094;28;20059;-71
2021/04/12 09:44:23;;;;;;;4.55;2.45;;;3.80;99.90;;;;;;5067992;28;20029;-70
2021/04/12 09:47:20;;;;;;;3.38;1.70;;;3.60;99.90;;;;;;5068056;28;20036;-72
2021/04/12 09:49:52;;;;;;;2.78;1.83;;;3.80;99.90;;;;;;5067693;28;20043;-72
2021/04/12 09:52:37;;;;;;;12.40;6.70;;;3.90;99.90;;;;;;5067803;28;20126;-71
2021/04/12 09:55:09;;;;;;;8.25;4.55;;;4.10;99.90;;;;;;5067736;28;20432;-70
2021/04/12 09:58:13;;;;;;;5.80;2.30;;;4.60;99.90;;;;;;5061862;28;20049;-71
2021/04/12 10:01:09;;;;;;;2.63;1.70;;;4.40;99.90;;;;;;5067628;28;20128;-71
2021/04/12 10:04:32;;;;;;;5.32;2.03;;;4.80;99.90;;;;;;5068017;28;20044;-72
2021/04/12 10:07:34;;;;;;;7.75;4.28;;;4.90;99.90;;;;;;5067394;28;20044;-73
2021/04/12 10:10:35;;;;;;;8.30;3.05;;;5.20;99.90;;;;;;5058402;28;20039;-70
2021/04/12 10:13:10;;;;;;;3.72;1.50;;;5.30;99.90;;;;;;5034538;28;20041;-72
2021/04/12 10:15:39;;;;;;;5.13;1.83;;;5.30;99.90;;;;;;5067795;28;20075;-72
2021/04/12 10:18:24;;;;;;;3.30;1.40;;;5.50;99.90;;;;;;5063220;28;20112;-72
2021/04/12 10:21:06;;;;;;;4.15;1.83;;;5.90;99.90;;;;;;5063135;28;20032;-72
2021/04/12 10:23:35;;;;;;;4.63;1.60;;;5.80;98.70;;;;;;5058610;28;20044;-71
2021/04/12 10:26:06;;;;;;;3.50;1.90;;;6.00;99.90;;;;;;5065117;28;20115;-70
2021/04/12 10:29:06;;;;;;;6.43;1.52;;;6.20;99.90;;;;;;5067232;28;20098;-72
2021/04/12 10:31:40;;;;;;;5.38;3.20;;;6.30;99.90;;;;;;5066299;28;20071;-70
2021/04/12 10:34:15;;;;;;;4.57;2.70;;;6.20;99.90;;;;;;5063134;28;20032;-69
2021/04/12 10:36:51;;;;;;;5.25;1.65;;;6.00;99.90;;;;;;5059159;28;20045;-71
2021/04/12 10:39:40;;;;;;;9.52;1.65;;;6.00;99.90;;;;;;5065793;28;20036;-71
2021/04/12 10:42:25;;;;;;;;;;;6.00;99.90;;;;;;5067833;28;20032;-72
2021/04/12 10:45:02;;;;;;;2.92;1.10;;;6.10;99.90;;;;;;5069054;28;20042;-71
2021/04/12 10:47:41;;;;;;;6.50;1.08;;;6.20;99.90;;;;;;5066908;28;20048;-71
2021/04/12 10:50:32;;;;;;;2.45;1.25;;;6.20;99.90;;;;;;5067398;28;20515;-70
2021/04/12 10:53:35;;;;;;;3.35;1.30;;;6.30;99.90;;;;;;5066369;28;20052;-70
2021/04/12 10:56:19;;;;;;;3.97;1.40;;;6.30;99.90;;;;;;5059674;28;20393;-70
2021/04/12 10:59:30;;;;;;;2.08;1.25;;;6.50;99.90;;;;;;5068268;28;20040;-70
2021/04/12 11:01:57;;;;;;;3.88;1.35;;;6.60;99.90;;;;;;5019701;28;20037;-69
2021/04/12 11:04:41;;;;;;;;;;;6.60;99.90;;;;;;5046236;28;20055;-73
2021/04/12 11:07:16;;;;;;;3.28;1.15;;;6.50;99.50;;;;;;5070221;28;19920;-73
2021/04/12 11:09:50;;;;;;;5.22;1.33;;;6.50;99.90;;;;;;5066803;28;20839;-71
2021/04/12 11:12:34;;;;;;;3.70;1.23;;;6.60;99.90;;;;;;5067573;28;20048;-70
2021/04/12 11:15:20;;;;;;;4.82;1.13;;;6.70;99.00;;;;;;5071785;28;20055;-71
2021/04/12 11:17:58;;;;;;;4.35;2.03;;;6.40;97.40;;;;;;5071650;28;20035;-72
2021/04/12 11:20:55;;;;;;;2.28;1.08;;;5.60;97.80;;;;;;5067163;28;20447;-73
2021/04/12 11:23:41;;;;;;;2.78;1.17;;;5.20;99.10;;;;;;5063234;28;20134;-71
2021/04/12 11:26:18;;;;;;;2.80;0.93;;;5.20;99.60;;;;;;5049208;28;20090;-70
2021/04/12 11:28:59;;;;;;;1.40;0.82;;;5.50;99.90;;;;;;5083173;28;20049;-71
2021/04/12 11:31:42;;;;;;;2.63;1.05;;;5.90;99.90;;;;;;5082808;28;20036;-73
2021/04/12 11:34:10;;;;;;;2.67;1.17;;;6.50;99.90;;;;;;5083904;28;20115;-73
2021/04/12 11:37:12;;;;;;;1.42;0.95;;;6.90;99.10;;;;;;5084325;28;20072;-72
2021/04/12 11:39:48;;;;;;;2.10;1.08;;;7.10;99.30;;;;;;5070395;28;20040;-72
2021/04/12 11:42:20;;;;;;;2.95;1.00;;;7.00;96.60;;;;;;5067050;28;20044;-72
2021/04/12 11:45:00;;;;;;;4.05;1.33;;;6.90;98.30;;;;;;5068572;28;20564;-73
2021/04/12 11:47:52;;;;;;;3.75;1.40;;;6.40;98.90;;;;;;5067199;28;20044;-71
2021/04/12 11:50:29;;;;;;;3.97;1.23;;;5.80;98.50;;;;;;5067060;28;20044;-72
2021/04/12 11:53:05;;;;;;;3.63;1.20;;;5.70;97.80;;;;;;5066235;28;20115;-73
2021/04/12 11:55:34;;;;;;;4.35;1.40;;;5.60;97.40;;;;;;5080874;28;20124;-73
2021/04/12 11:58:05;;;;;;;3.28;1.52;;;5.30;99.90;;;;;;5066403;28;20072;-73
2021/04/12 12:00:59;;;;;;;1.88;1.10;;;5.30;99.20;;;;;;5066018;28;20036;-72
2021/04/12 12:03:34;;;;;;;5.60;1.88;;;5.30;99.90;;;;;;5066314;28;20044;-73
2021/04/12 12:06:18;;;;;;;3.58;1.70;;;5.50;99.90;;;;;;5066584;28;20393;-73
2021/04/12 12:08:59;;;;;;;3.50;1.83;;;5.60;99.90;;;;;;5066922;28;20039;-73
2021/04/12 12:11:51;;;;;;;7.05;1.95;;;5.90;99.90;;;;;;5069475;28;20044;-73
2021/04/12 12:14:26;;;;;;;9.95;1.90;;;6.10;99.90;;;;;;5069063;28;20051;-71
2021/04/12 12:16:55;;;;;;;2.85;1.92;;;6.40;99.90;;;;;;5069156;28;20047;-71
2021/04/12 12:19:42;;;;;;;1.90;1.40;;;6.50;99.90;;;;;;5069894;28;20485;-74
2021/04/12 12:22:20;;;;;;;;;;;6.60;99.90;;;;;;5069488;28;20056;-71
2021/04/12 12:25:35;;;;;;;9.30;1.58;;;6.40;98.80;;;;;;5070800;28;19917;-72
2021/04/12 12:28:15;;;;;;;11.60;1.70;;;6.40;99.80;;;;;;5044566;28;20056;-74
2021/04/12 12:30:53;;;;;;;8.98;2.47;;;6.50;99.90;;;;;;5070417;28;20403;-73
2021/04/12 12:33:19;;;;;;;7.32;3.15;;;6.60;99.00;;;;;;5069186;28;20186;-73
2021/04/12 12:35:58;;;;;;;;;;;6.70;99.40;;;;;;5069943;28;20544;-73
2021/04/12 12:38:29;;;;;;;6.05;1.90;;;6.90;98.90;;;;;;5069244;28;19970;-73
2021/04/12 12:41:00;;;;;;;5.80;1.55;;;7.30;99.00;;;;;;5069451;28;20076;-72
2021/04/12 12:43:35;;;;;;;5.20;1.50;;;7.20;97.70;;;;;;5068525;28;20054;-71
2021/04/12 12:46:24;;;;;;;2.78;1.50;;;6.50;98.50;;;;;;5069593;28;20497;-72
2021/04/12 12:48:53;;;;;;;2.80;1.38;;;6.00;99.60;;;;;;5068265;28;20032;-71
2021/04/12 12:51:28;;;;;;;2.60;1.50;;;5.50;99.90;;;;;;5060919;28;20043;-72
2021/04/12 12:54:19;;;;;;;2.67;1.80;;;5.10;99.90;;;;;;5070517;28;20067;-72
2021/04/12 12:56:45;;;;;;;2.20;1.88;;;4.90;99.90;;;;;;5059458;28;20064;-73
2021/04/12 12:59:22;;;;;;;3.08;1.52;;;5.00;99.90;;;;;;5068962;28;20040;-74
2021/04/12 13:01:48;;;;;;;3.58;1.80;;;5.30;99.90;;;;;;5068278;28;20041;-71
2021/04/12 13:04:20;;;;;;;5.30;1.77;;;5.30;99.90;;;;;;5068866;28;20039;-74
2021/04/12 13:06:53;;;;;;;2.95;1.67;;;5.40;99.90;;;;;;5068853;28;20032;-75
2021/04/12 13:09:55;;;;;;;3.97;2.40;;;5.60;99.90;;;;;;5069212;28;20179;-74
2021/04/12 13:12:28;;;;;;;9.65;2.22;;;5.80;99.90;;;;;;5068434;28;20089;-73
2021/04/12 13:15:14;;;;;;;14.82;9.00;;;6.10;99.90;;;;;;5071140;28;20043;-74
2021/04/12 13:17:40;;;;;;;4.10;1.75;;;6.30;99.30;;;;;;5063886;28;20052;-74
2021/04/12 13:20:10;;;;;;;3.67;1.17;;;6.40;98.20;;;;;;5057393;28;20068;-74
2021/04/12 13:22:40;;;;;;;26.58;2.70;;;6.20;96.50;;;;;;5070356;28;20078;-74
2021/04/12 13:25:40;;;;;;;55.33;6.53;;;6.20;96.70;;;;;;5069615;28;20135;-73
2021/04/12 13:28:30;;;;;;;7.70;2.40;;;6.30;96.90;;;;;;5068817;28;20074;-72
2021/04/12 13:31:44;;;;;;;5.15;2.67;;;5.50;98.70;;;;;;5067525;28;20035;-72
2021/04/12 13:34:25;;;;;;;6.05;2.22;;;4.80;99.90;;;;;;5078515;28;20044;-73
2021/04/12 13:37:01;;;;;;;3.03;1.80;;;4.10;99.90;;;;;;5074288;28;20040;-73
2021/04/12 13:39:41;;;;;;;2.15;1.23;;;3.50;99.90;;;;;;5049223;28;20120;-73
2021/04/12 13:42:17;;;;;;;1.42;0.90;;;3.30;99.90;;;;;;5048881;28;20114;-71
2021/04/12 13:44:47;;;;;;;2.15;1.45;;;3.10;99.90;;;;;;5049205;28;20047;-72
2021/04/12 13:47:21;;;;;;;2.28;1.63;;;2.90;99.90;;;;;;5048349;28;20053;-73
2021/04/12 13:50:01;;;;;;;1.90;1.40;;;2.80;99.90;;;;;;5049276;28;20080;-74
2021/04/12 13:52:30;;;;;;;1.20;1.10;;;2.60;99.90;;;;;;5057248;28;20037;-75
2021/04/12 13:55:01;;;;;;;2.85;1.10;;;2.50;99.90;;;;;;5069868;28;20045;-72
2021/04/12 13:57:40;;;;;;;4.10;1.40;;;2.70;99.90;;;;;;5069046;28;20036;-73
2021/04/12 14:00:09;;;;;;;3.05;1.40;;;2.90;99.90;;;;;;5068403;28;20090;-70
2021/04/12 14:02:47;;;;;;;1.30;1.20;;;2.90;99.90;;;;;;5067526;28;20040;-72
2021/04/12 14:05:22;;;;;;;1.38;1.02;;;3.10;99.90;;;;;;5068387;28;20123;-71
2021/04/12 14:08:15;;;;;;;45.50;27.48;;;3.30;99.90;;;;;;5068025;28;20040;-73
2021/04/12 14:10:54;;;;;;;20.98;11.40;;;3.60;99.90;;;;;;5057265;28;20378;-73
2021/04/12 14:13:43;;;;;;;5.57;2.92;;;3.80;99.90;;;;;;5066846;28;20052;-72
2021/04/12 14:16:26;;;;;;;2.22;1.35;;;3.90;99.90;;;;;;5067432;28;20478;-73
2021/04/12 14:19:21;;;;;;;2.40;1.70;;;4.00;99.90;;;;;;5067585;28;20142;-73
2021/04/12 14:21:48;;;;;;;2.20;1.35;;;3.90;99.90;;;;;;5067150;28;20037;-70
2021/04/12 14:24:27;;;;;;;2.00;1.50;;;4.00;99.90;;;;;;5066973;28;20040;-76
2021/04/12 14:27:07;;;;;;;1.70;1.20;;;4.10;99.90;;;;;;5067130;28;20037;-74
2021/04/12 14:29:40;;;;;;;11.88;7.28;;;4.30;99.90;;;;;;5061334;28;20459;-71
2021/04/12 14:32:26;;;;;;;17.02;10.20;;;4.20;99.90;;;;;;5068120;28;20032;-73
2021/04/12 14:35:06;;;;;;;;;;;4.50;99.90;;;;;;5067911;28;20040;-71